Airfield :
LOGIN :

Register | Disclaimer

   EN    FR    IT 

 










Legend :    VFR   Marginal VFR   IFR   Intensive IFR   Very Intensive IFR
Visi :
Ceiling :
>= 8 km
>= 3000ft
5 to 8 km
1000 to 3000 ft
1500m to 5 km
500 to 1000 ft
800 to 1500m
200 to 500 ft
< 800m
< 200 ft
Symbols :   Thunderstorms  Fog  Heavy snow  Heavy precipitations  Wind > 20 kt
SIGMETs :     Misc.  Thunderstorms  Icing  Turbulence  Mountain Waves  Volcanic Ashes







- Airport Elevation : 194 ft


EBCV - Chièvres

CURRENT METAR :
  • 220355Z AUTO 22003KT 9999 OVC140/// 09/08 Q1019 BLU

EXPIRED METARs :
  • 220349Z AUTO VRB02KT 7000 BKN140/// 09/08 Q1019 WHT
  • 220325Z AUTO VRB01KT 7000 SCT150/// BKN230/// 09/08 Q1019 WHT
  • 220322Z AUTO VRB02KT 7000 FEW150/// BKN230/// 08/07 Q1019 WHT
  • 220255Z AUTO VRB02KT 7000 SCT140/// BKN230/// 09/07 Q1019 WHT
  • 220233Z AUTO VRB02KT 7000 BKN140/// BKN220/// 09/07 Q1019 WHT
  • 220225Z AUTO VRB01KT 9999 BKN130/// BKN220/// 08/07 Q1019 BLU
  • 220155Z AUTO VRB01KT 9999 BKN230/// 09/07 Q1019 BLU
  • 220125Z AUTO VRB01KT 9999 NCD 10/08 Q1019 BLU

TAF TAF EBCV
Valid from the 21 at 19:00 until the 22 at 07:00 UTC


211541Z 2119/2207 16004KT 9999 FEW030 SCT130
PROB40
TEMPO 2201/2207 VRB02KT 4000 BR BY EBWM
No reported NOTAMs for that airfield.



MET'MAP, your aeronautical weather chart ! - Copyright ORBIFLY December 2007 - Disclaimer

ORBIFLY MET'MAP TEAM :

Programming & Development : Alexandra Zaïnal
Concept & Development : Baudouin d'Aumeries
Co-Development & Prog : Marc-Olivier Méhu
Technical & hardware support : Manuel Goepfert

Contact : metmap@orbifly.com




SOURCES & CREDITS :

   NOAA